Time;durP1;ratioP1;P1;durP2;ratioP2;P2;SDS_P1;SDS_P2;PMS_P1;PMS_P2;Temp;Humidity;BMP_temperature;BMP_pressure;BME280_temperature;BME280_humidity;BME280_pressure;Samples;Min_cycle;Max_cycle;Signal;HPM_P1;HPM_P2
2021/09/29 00:02:23;;;;;;;0.33;0.30;;;;;;;;;;5002616;28;20034;-81
2021/09/29 00:04:49;;;;;;;0.20;0.20;;;;;;;;;;4999748;28;20305;-84
2021/09/29 00:07:16;;;;;;;0.10;0.10;;;;;;;;;;4999004;28;20032;-83
2021/09/29 00:09:42;;;;;;;0.10;0.10;;;;;;;;;;5000893;28;20045;-83
2021/09/29 00:12:08;;;;;;;0.10;0.10;;;;;;;;;;4997293;28;20023;-83
2021/09/29 00:14:34;;;;;;;0.10;0.10;;;;;;;;;;5002092;28;20100;-84
2021/09/29 00:17:00;;;;;;;0.10;0.10;;;;;;;;;;4999077;28;20038;-84
2021/09/29 00:19:27;;;;;;;0.10;0.10;;;;;;;;;;5000641;28;20281;-84
2021/09/29 00:21:53;;;;;;;0.63;0.63;;;;;;;;;;4999840;28;20500;-84
2021/09/29 00:24:19;;;;;;;0.13;0.13;;;;;;;;;;4998411;28;20519;-84
2021/09/29 00:26:45;;;;;;;0.30;0.30;;;;;;;;;;5002603;28;20631;-85
2021/09/29 00:29:11;;;;;;;0.13;0.13;;;;;;;;;;4993577;28;20037;-84
2021/09/29 00:31:39;;;;;;;0.23;0.10;;;;;;;;;;4996290;28;20121;-84
2021/09/29 00:34:08;;;;;;;0.00;0.00;;;;;;;;;;4994203;28;20037;-84
2021/09/29 00:36:38;;;;;;;0.20;0.20;;;;;;;;;;5004165;28;20523;-82
2021/09/29 00:39:05;;;;;;;0.40;0.40;;;;;;;;;;5002493;28;20034;-83
2021/09/29 00:41:31;;;;;;;;;;;;;;;;;;5000179;28;20049;-83
2021/09/29 00:43:57;;;;;;;0.20;0.20;;;;;;;;;;4994765;28;19975;-83
2021/09/29 00:46:23;;;;;;;0.50;0.40;;;;;;;;;;4994393;28;20687;-83
2021/09/29 00:48:49;;;;;;;0.10;0.10;;;;;;;;;;5001233;28;20034;-83
2021/09/29 00:51:15;;;;;;;0.10;0.10;;;;;;;;;;4995294;28;20312;-83
2021/09/29 00:53:42;;;;;;;0.10;0.10;;;;;;;;;;4994712;28;20038;-86
2021/09/29 00:56:09;;;;;;;4.70;1.98;;;;;;;;;;4990032;28;20046;-86
2021/09/29 00:58:35;;;;;;;0.20;0.20;;;;;;;;;;4997691;28;20041;-86
2021/09/29 01:01:01;;;;;;;0.20;0.20;;;;;;;;;;5000692;28;20026;-86
2021/09/29 01:03:27;;;;;;;0.10;0.10;;;;;;;;;;4995377;28;20049;-87
2021/09/29 01:05:58;;;;;;;0.40;0.30;;;;;;;;;;5000268;28;20280;-88
2021/09/29 01:08:30;;;;;;;0.17;0.17;;;;;;;;;;5003404;28;20037;-83
2021/09/29 01:11:03;;;;;;;6.13;0.30;;;;;;;;;;5000061;28;20038;-83
2021/09/29 01:14:02;;;;;;;0.10;0.10;;;;;;;;;;4996526;28;20052;-84
2021/09/29 01:16:30;;;;;;;0.10;0.10;;;;;;;;;;4941103;28;20053;-84
2021/09/29 01:18:57;;;;;;;0.10;0.10;;;;;;;;;;4961755;28;20043;-84
2021/09/29 01:21:25;;;;;;;0.10;0.10;;;;;;;;;;4956339;28;20033;-81
2021/09/29 01:24:01;;;;;;;0.10;0.10;;;;;;;;;;4966203;28;20121;-81
2021/09/29 01:26:28;;;;;;;0.00;0.00;;;;;;;;;;4947517;28;20050;-81
2021/09/29 01:29:02;;;;;;;0.20;0.20;;;;;;;;;;4964936;28;20085;-81
2021/09/29 01:31:29;;;;;;;0.10;0.10;;;;;;;;;;4961780;28;20062;-83
2021/09/29 01:33:55;;;;;;;;;;;;;;;;;;4956986;28;20579;-85
2021/09/29 01:36:22;;;;;;;0.10;0.10;;;;;;;;;;4963647;28;19914;-85
2021/09/29 01:38:53;;;;;;;0.20;0.20;;;;;;;;;;4962476;28;20061;-85
2021/09/29 01:41:19;;;;;;;0.10;0.10;;;;;;;;;;4946242;28;20193;-85
2021/09/29 01:43:45;;;;;;;0.05;0.05;;;;;;;;;;4958882;28;20039;-85
2021/09/29 01:46:11;;;;;;;0.10;0.10;;;;;;;;;;4956794;28;20047;-83
2021/09/29 01:49:03;;;;;;;0.20;0.20;;;;;;;;;;4959443;28;20030;-83
2021/09/29 01:51:31;;;;;;;1.10;0.77;;;;;;;;;;4953921;28;20303;-83
2021/09/29 01:53:58;;;;;;;0.40;0.40;;;;;;;;;;5002461;28;20027;-84
2021/09/29 01:56:24;;;;;;;;;;;;;;;;;;5005301;28;20049;-84
2021/09/29 01:58:50;;;;;;;0.17;0.17;;;;;;;;;;4999923;28;19917;-84
2021/09/29 02:01:16;;;;;;;0.10;0.10;;;;;;;;;;4998016;28;20033;-82
2021/09/29 02:03:46;;;;;;;0.10;0.10;;;;;;;;;;4996407;28;20046;-82
2021/09/29 02:06:13;;;;;;;0.20;0.20;;;;;;;;;;5000477;28;20513;-84
2021/09/29 02:08:39;;;;;;;1.00;0.32;;;;;;;;;;5004435;28;20042;-83
2021/09/29 02:11:06;;;;;;;0.20;0.20;;;;;;;;;;5004293;28;20041;-84
2021/09/29 02:13:32;;;;;;;5.75;0.40;;;;;;;;;;4997156;28;20152;-82
2021/09/29 02:15:58;;;;;;;0.20;0.20;;;;;;;;;;4997940;28;20868;-84
2021/09/29 02:18:24;;;;;;;0.10;0.10;;;;;;;;;;4997150;28;20065;-84
2021/09/29 02:20:52;;;;;;;0.10;0.10;;;;;;;;;;4997732;28;20033;-84
2021/09/29 02:23:21;;;;;;;0.10;0.10;;;;;;;;;;4997838;28;20049;-89
2021/09/29 02:25:48;;;;;;;0.10;0.10;;;;;;;;;;4994613;28;20038;-91
2021/09/29 02:28:14;;;;;;;0.10;0.10;;;;;;;;;;4994083;28;20037;-91
2021/09/29 02:30:40;;;;;;;0.10;0.10;;;;;;;;;;4992585;28;20034;-87
2021/09/29 02:33:06;;;;;;;0.22;0.22;;;;;;;;;;4993075;28;20041;-89
2021/09/29 02:35:32;;;;;;;0.30;0.30;;;;;;;;;;4991446;28;20041;-90
2021/09/29 02:37:58;;;;;;;0.00;0.00;;;;;;;;;;4991397;28;20610;-90
2021/09/29 02:40:24;;;;;;;0.10;0.10;;;;;;;;;;4992057;28;20041;-88
2021/09/29 02:42:51;;;;;;;0.10;0.10;;;;;;;;;;4993998;28;20042;-90
2021/09/29 02:45:17;;;;;;;0.57;0.57;;;;;;;;;;5000242;28;20397;-86
2021/09/29 02:47:43;;;;;;;0.20;0.20;;;;;;;;;;5000910;28;20049;-82
2021/09/29 02:50:09;;;;;;;0.10;0.10;;;;;;;;;;5002076;28;20108;-82
2021/09/29 02:52:36;;;;;;;0.10;0.10;;;;;;;;;;4998866;28;20061;-83
2021/09/29 02:55:03;;;;;;;0.10;0.10;;;;;;;;;;4979834;28;20034;-80
2021/09/29 02:57:29;;;;;;;0.10;0.10;;;;;;;;;;4999450;28;20065;-83
2021/09/29 02:59:55;;;;;;;0.20;0.20;;;;;;;;;;5002419;28;20031;-83
2021/09/29 03:02:21;;;;;;;2.43;0.90;;;;;;;;;;5001920;28;20276;-81
2021/09/29 03:04:47;;;;;;;0.20;0.20;;;;;;;;;;4992502;28;20308;-80
2021/09/29 03:07:13;;;;;;;0.30;0.30;;;;;;;;;;4999709;28;20280;-81
2021/09/29 03:09:39;;;;;;;0.10;0.10;;;;;;;;;;4991325;28;20030;-80
2021/09/29 03:12:05;;;;;;;0.30;0.30;;;;;;;;;;4997040;28;20033;-82
2021/09/29 03:14:31;;;;;;;0.25;0.25;;;;;;;;;;5003806;28;20407;-81
2021/09/29 03:16:57;;;;;;;0.10;0.10;;;;;;;;;;4989350;28;20050;-82
2021/09/29 03:19:23;;;;;;;0.10;0.10;;;;;;;;;;4999588;28;20879;-82
2021/09/29 03:21:49;;;;;;;0.30;0.30;;;;;;;;;;4991731;28;20025;-82
2021/09/29 03:24:19;;;;;;;0.30;0.30;;;;;;;;;;4996816;28;20133;-83
2021/09/29 03:26:49;;;;;;;0.10;0.10;;;;;;;;;;5000059;28;20130;-81
2021/09/29 03:29:15;;;;;;;0.10;0.10;;;;;;;;;;4998472;28;20038;-81
2021/09/29 03:31:41;;;;;;;0.10;0.10;;;;;;;;;;4992789;28;20100;-83
2021/09/29 03:34:08;;;;;;;0.20;0.20;;;;;;;;;;4996133;28;20046;-82
2021/09/29 03:36:34;;;;;;;0.10;0.10;;;;;;;;;;4995887;28;20030;-82
2021/09/29 03:39:00;;;;;;;0.10;0.10;;;;;;;;;;4990241;28;20665;-81
2021/09/29 03:41:27;;;;;;;0.10;0.10;;;;;;;;;;4993197;28;20038;-82
2021/09/29 03:43:53;;;;;;;0.20;0.20;;;;;;;;;;4992832;28;20064;-83
2021/09/29 03:46:20;;;;;;;0.28;0.28;;;;;;;;;;4991922;28;20042;-83
2021/09/29 03:48:46;;;;;;;0.40;0.40;;;;;;;;;;4990500;28;20105;-86
2021/09/29 03:51:12;;;;;;;0.00;0.00;;;;;;;;;;4992449;28;20046;-87
2021/09/29 03:53:38;;;;;;;0.13;0.13;;;;;;;;;;4995378;28;20037;-85
2021/09/29 03:56:04;;;;;;;0.10;0.10;;;;;;;;;;4993737;28;20065;-83
2021/09/29 03:58:30;;;;;;;2.17;0.40;;;;;;;;;;4993936;28;20402;-82
2021/09/29 04:00:56;;;;;;;0.10;0.10;;;;;;;;;;4992117;28;20089;-83
2021/09/29 04:03:22;;;;;;;0.10;0.10;;;;;;;;;;4988291;28;20041;-83
2021/09/29 04:05:48;;;;;;;0.20;0.20;;;;;;;;;;4992651;28;20521;-83
2021/09/29 04:08:15;;;;;;;0.63;0.63;;;;;;;;;;4994615;28;20030;-83
2021/09/29 04:10:41;;;;;;;0.40;0.40;;;;;;;;;;4996226;28;20589;-83
2021/09/29 04:13:08;;;;;;;0.00;0.00;;;;;;;;;;4990647;28;20042;-84
2021/09/29 04:15:34;;;;;;;0.22;0.22;;;;;;;;;;4993185;28;20034;-84
2021/09/29 04:18:01;;;;;;;0.20;0.20;;;;;;;;;;4990243;28;20949;-84
2021/09/29 04:20:28;;;;;;;0.43;0.43;;;;;;;;;;4991039;28;20136;-84
2021/09/29 04:22:54;;;;;;;0.20;0.20;;;;;;;;;;4988985;28;20915;-84
2021/09/29 04:25:21;;;;;;;2.40;0.70;;;;;;;;;;4991175;28;20034;-85
2021/09/29 04:27:47;;;;;;;0.10;0.10;;;;;;;;;;4992969;28;20418;-85
2021/09/29 04:30:16;;;;;;;0.20;0.20;;;;;;;;;;4991344;28;20038;-84
2021/09/29 04:32:43;;;;;;;0.20;0.20;;;;;;;;;;4992118;28;20289;-83
2021/09/29 04:35:09;;;;;;;;;;;;;;;;;;4995103;28;20128;-84
2021/09/29 04:37:35;;;;;;;0.30;0.30;;;;;;;;;;4991320;28;20020;-83
2021/09/29 04:40:01;;;;;;;0.10;0.10;;;;;;;;;;4991689;28;20026;-83
2021/09/29 04:42:27;;;;;;;0.20;0.20;;;;;;;;;;4996478;28;20034;-84
2021/09/29 04:44:54;;;;;;;0.10;0.10;;;;;;;;;;4993746;28;20042;-83
2021/09/29 04:47:20;;;;;;;0.10;0.10;;;;;;;;;;4999222;28;20102;-82
2021/09/29 04:49:46;;;;;;;0.10;0.10;;;;;;;;;;4997134;28;20324;-84
2021/09/29 04:52:12;;;;;;;0.30;0.30;;;;;;;;;;4998945;28;20065;-83
2021/09/29 04:54:41;;;;;;;0.60;0.37;;;;;;;;;;4990872;28;20125;-83
2021/09/29 04:57:07;;;;;;;0.20;0.20;;;;;;;;;;4994417;28;20369;-83
2021/09/29 04:59:33;;;;;;;0.10;0.10;;;;;;;;;;4995071;28;20104;-82
2021/09/29 05:01:59;;;;;;;0.40;0.40;;;;;;;;;;5002910;28;20088;-84
2021/09/29 05:04:25;;;;;;;3.33;0.30;;;;;;;;;;4996929;28;20930;-84
2021/09/29 05:06:53;;;;;;;0.10;0.10;;;;;;;;;;4997811;28;20285;-84
2021/09/29 05:09:19;;;;;;;0.08;0.08;;;;;;;;;;4992741;28;20034;-84
2021/09/29 05:11:48;;;;;;;0.23;0.23;;;;;;;;;;4999539;28;20041;-85
2021/09/29 05:14:15;;;;;;;0.47;0.47;;;;;;;;;;4997632;28;20033;-85
2021/09/29 05:16:41;;;;;;;2.83;1.23;;;;;;;;;;4998103;28;20040;-85
2021/09/29 05:19:08;;;;;;;0.67;0.67;;;;;;;;;;4998579;28;20057;-83
2021/09/29 05:21:34;;;;;;;0.93;0.93;;;;;;;;;;4993791;28;20025;-80
2021/09/29 05:24:01;;;;;;;0.82;0.40;;;;;;;;;;4996733;28;20046;-82
2021/09/29 05:26:27;;;;;;;0.10;0.10;;;;;;;;;;4992110;28;20055;-83
2021/09/29 05:28:55;;;;;;;0.20;0.20;;;;;;;;;;4976473;28;20120;-81
2021/09/29 05:31:21;;;;;;;0.10;0.10;;;;;;;;;;4973730;28;20073;-82
2021/09/29 05:33:47;;;;;;;0.10;0.10;;;;;;;;;;4973821;28;20041;-85
2021/09/29 05:36:14;;;;;;;0.30;0.30;;;;;;;;;;4974078;28;20045;-83
2021/09/29 05:38:40;;;;;;;0.10;0.10;;;;;;;;;;4978210;28;20038;-84
2021/09/29 05:41:06;;;;;;;0.30;0.30;;;;;;;;;;4974995;28;20039;-83
2021/09/29 05:43:32;;;;;;;0.10;0.10;;;;;;;;;;4978203;28;20073;-84
2021/09/29 05:45:59;;;;;;;0.20;0.20;;;;;;;;;;4974637;28;20296;-83
2021/09/29 05:48:25;;;;;;;0.28;0.28;;;;;;;;;;4985076;28;20487;-86
2021/09/29 05:50:51;;;;;;;0.15;0.15;;;;;;;;;;4987477;28;20081;-85
2021/09/29 05:53:17;;;;;;;0.30;0.20;;;;;;;;;;4984271;28;20041;-85
2021/09/29 05:55:43;;;;;;;0.00;0.00;;;;;;;;;;4985376;28;20273;-83
2021/09/29 05:58:09;;;;;;;0.10;0.10;;;;;;;;;;4985147;28;20037;-84
2021/09/29 06:00:36;;;;;;;0.10;0.10;;;;;;;;;;4985736;28;20042;-83
2021/09/29 06:03:02;;;;;;;0.32;0.32;;;;;;;;;;4986150;28;20035;-81
2021/09/29 06:05:28;;;;;;;0.03;0.03;;;;;;;;;;4984437;28;20057;-80
2021/09/29 06:07:54;;;;;;;0.00;0.00;;;;;;;;;;4984304;28;20373;-80
2021/09/29 06:10:20;;;;;;;0.10;0.10;;;;;;;;;;4982512;28;20059;-81
2021/09/29 06:12:46;;;;;;;0.17;0.17;;;;;;;;;;4984667;28;20026;-83
2021/09/29 06:18:14;;;;;;;0.10;0.10;;;;;;;;;;4939231;28;20043;-82
2021/09/29 06:20:50;;;;;;;0.10;0.10;;;;;;;;;;4950198;28;20040;-82
2021/09/29 06:23:17;;;;;;;0.20;0.20;;;;;;;;;;4940933;28;20073;-82
2021/09/29 06:25:43;;;;;;;0.10;0.10;;;;;;;;;;4953365;28;20045;-82
2021/09/29 06:28:09;;;;;;;0.10;0.10;;;;;;;;;;4940714;28;20572;-83
2021/09/29 06:30:36;;;;;;;0.10;0.10;;;;;;;;;;4946184;28;20525;-82
2021/09/29 06:33:02;;;;;;;0.10;0.10;;;;;;;;;;4947246;28;20109;-83
2021/09/29 06:35:31;;;;;;;0.47;0.47;;;;;;;;;;4957100;28;20746;-83
2021/09/29 06:37:58;;;;;;;2.55;0.90;;;;;;;;;;4951669;28;20122;-84
2021/09/29 06:40:24;;;;;;;0.10;0.10;;;;;;;;;;4944016;28;20047;-82
2021/09/29 06:42:51;;;;;;;0.20;0.20;;;;;;;;;;4942207;28;20398;-82
2021/09/29 06:45:17;;;;;;;0.10;0.10;;;;;;;;;;4931281;28;20069;-83
2021/09/29 06:47:46;;;;;;;0.45;0.45;;;;;;;;;;4933031;28;20039;-84
2021/09/29 06:50:12;;;;;;;0.10;0.10;;;;;;;;;;4947207;28;20041;-84
2021/09/29 06:52:39;;;;;;;3.72;0.75;;;;;;;;;;4948603;28;20122;-84
2021/09/29 06:55:06;;;;;;;0.15;0.15;;;;;;;;;;4985564;28;20769;-83
2021/09/29 06:57:32;;;;;;;;;;;;;;;;;;4984434;28;20556;-85
2021/09/29 06:59:58;;;;;;;0.17;0.17;;;;;;;;;;4984300;28;19950;-81
2021/09/29 07:02:24;;;;;;;0.00;0.00;;;;;;;;;;4981306;28;20532;-84
2021/09/29 07:04:50;;;;;;;0.10;0.10;;;;;;;;;;4975353;28;20181;-84
2021/09/29 07:07:16;;;;;;;0.17;0.17;;;;;;;;;;4975534;28;20057;-84
2021/09/29 07:09:42;;;;;;;0.20;0.13;;;;;;;;;;4983810;28;20415;-83
2021/09/29 07:12:09;;;;;;;0.30;0.30;;;;;;;;;;4983096;28;20612;-82
2021/09/29 07:14:35;;;;;;;0.10;0.10;;;;;;;;;;4984611;28;20034;-82
2021/09/29 07:17:01;;;;;;;0.10;0.10;;;;;;;;;;4981566;28;20031;-83
2021/09/29 07:19:28;;;;;;;0.13;0.13;;;;;;;;;;4983654;28;21043;-84
2021/09/29 07:21:54;;;;;;;0.17;0.17;;;;;;;;;;4983510;28;20161;-83
2021/09/29 07:24:20;;;;;;;0.30;0.30;;;;;;;;;;4984119;28;20038;-84
2021/09/29 07:26:46;;;;;;;0.20;0.20;;;;;;;;;;4994271;28;21075;-84
2021/09/29 07:29:12;;;;;;;0.70;0.70;;;;;;;;;;5003249;28;20289;-82
2021/09/29 07:31:39;;;;;;;0.30;0.30;;;;;;;;;;5003134;28;20305;-82
2021/09/29 07:34:07;;;;;;;0.15;0.15;;;;;;;;;;5002989;28;20037;-83
2021/09/29 07:36:33;;;;;;;0.10;0.10;;;;;;;;;;5003112;28;20057;-83
2021/09/29 07:38:59;;;;;;;0.05;0.05;;;;;;;;;;5003419;28;20068;-82
2021/09/29 07:41:25;;;;;;;0.00;0.00;;;;;;;;;;5004315;28;20571;-82
2021/09/29 07:43:51;;;;;;;0.00;0.00;;;;;;;;;;5003354;28;20687;-82
2021/09/29 07:46:17;;;;;;;0.15;0.15;;;;;;;;;;5002997;28;20037;-82
2021/09/29 07:48:43;;;;;;;0.10;0.10;;;;;;;;;;5003059;28;20033;-82
2021/09/29 07:51:10;;;;;;;0.10;0.10;;;;;;;;;;5003113;28;20040;-82
2021/09/29 07:53:36;;;;;;;0.00;0.00;;;;;;;;;;5003611;28;20269;-82
2021/09/29 07:56:02;;;;;;;0.10;0.10;;;;;;;;;;5002729;28;20080;-82
2021/09/29 07:58:28;;;;;;;0.25;0.25;;;;;;;;;;5003312;28;20033;-82
2021/09/29 08:00:54;;;;;;;0.10;0.10;;;;;;;;;;5002926;28;20053;-82
2021/09/29 08:03:20;;;;;;;0.10;0.10;;;;;;;;;;5003209;28;20079;-82
2021/09/29 08:05:47;;;;;;;0.00;0.00;;;;;;;;;;5005378;28;20041;-82
2021/09/29 08:08:13;;;;;;;0.40;0.40;;;;;;;;;;5002543;28;20041;-82
2021/09/29 08:10:39;;;;;;;0.10;0.10;;;;;;;;;;5004298;28;20068;-82
2021/09/29 08:13:05;;;;;;;0.43;0.43;;;;;;;;;;5003120;28;20061;-83
2021/09/29 08:15:31;;;;;;;0.03;0.03;;;;;;;;;;5002846;28;20058;-82
2021/09/29 08:17:57;;;;;;;0.23;0.23;;;;;;;;;;5003612;28;20108;-82
2021/09/29 08:20:25;;;;;;;0.00;0.00;;;;;;;;;;5002704;28;20936;-82
2021/09/29 08:23:01;;;;;;;0.15;0.15;;;;;;;;;;5003202;28;20065;-82
2021/09/29 08:25:43;;;;;;;0.15;0.15;;;;;;;;;;5002487;28;20042;-83
2021/09/29 08:38:47;;;;;;;0.10;0.10;;;;;;;;;;5003803;28;20037;-82
2021/09/29 08:44:00;;;;;;;1.45;1.17;;;;;;;;;;5002845;28;20042;-83
2021/09/29 08:49:15;;;;;;;0.38;0.38;;;;;;;;;;5002768;28;20045;-83
2021/09/29 09:16:29;;;;;;;0.22;0.22;;;;;;;;;;5001953;28;20093;-84
2021/09/29 09:18:56;;;;;;;0.10;0.10;;;;;;;;;;5002044;28;20068;-84
2021/09/29 09:21:22;;;;;;;0.10;0.10;;;;;;;;;;5002059;28;20038;-84
2021/09/29 09:23:48;;;;;;;0.00;0.00;;;;;;;;;;5004022;28;20061;-84
2021/09/29 09:26:19;;;;;;;0.38;0.30;;;;;;;;;;4999277;28;20128;-85
2021/09/29 09:28:46;;;;;;;0.10;0.10;;;;;;;;;;5001628;28;20495;-84
2021/09/29 09:31:13;;;;;;;0.00;0.00;;;;;;;;;;5001367;28;20067;-84
2021/09/29 09:34:00;;;;;;;1.08;0.82;;;;;;;;;;5001348;28;20065;-85
2021/09/29 09:36:43;;;;;;;0.20;0.20;;;;;;;;;;4985965;28;20026;-84
2021/09/29 09:39:23;;;;;;;0.10;0.10;;;;;;;;;;5002288;28;20034;-84
2021/09/29 09:41:49;;;;;;;0.00;0.00;;;;;;;;;;5004226;28;20041;-84
2021/09/29 09:44:22;;;;;;;0.00;0.00;;;;;;;;;;5006383;28;20069;-84
2021/09/29 09:47:04;;;;;;;0.10;0.10;;;;;;;;;;5004897;28;20285;-84
2021/09/29 09:49:31;;;;;;;0.03;0.03;;;;;;;;;;5006377;28;20412;-85
2021/09/29 09:52:00;;;;;;;0.93;0.45;;;;;;;;;;5007986;28;20108;-85
2021/09/29 09:54:53;;;;;;;0.30;0.25;;;;;;;;;;5003036;28;20520;-83
2021/09/29 09:57:20;;;;;;;0.20;0.20;;;;;;;;;;5001230;28;20095;-84
2021/09/29 09:59:49;;;;;;;0.10;0.10;;;;;;;;;;5007610;28;20080;-83
2021/09/29 10:02:15;;;;;;;0.00;0.00;;;;;;;;;;5005505;28;20808;-83
2021/09/29 10:04:42;;;;;;;0.17;0.17;;;;;;;;;;5004813;28;20042;-84
2021/09/29 10:07:08;;;;;;;0.10;0.10;;;;;;;;;;5005956;28;20034;-83
2021/09/29 10:10:00;;;;;;;8.57;0.77;;;;;;;;;;5005568;28;20046;-84
2021/09/29 10:14:59;;;;;;;0.03;0.03;;;;;;;;;;5007256;28;20030;-85
2021/09/29 10:26:22;;;;;;;0.20;0.20;;;;;;;;;;5004729;28;20532;-83
2021/09/29 10:28:48;;;;;;;1.05;0.38;;;;;;;;;;5004430;28;20597;-84
2021/09/29 10:31:27;;;;;;;0.10;0.10;;;;;;;;;;5004464;28;20037;-84
2021/09/29 10:34:26;;;;;;;0.35;0.35;;;;;;;;;;5005070;28;20268;-84
2021/09/29 10:42:51;;;;;;;0.13;0.13;;;;;;;;;;5003222;28;20046;-83
2021/09/29 11:31:26;;;;;;;0.30;0.30;;;;;;;;;;4990342;28;20069;-86
2021/09/29 11:34:09;;;;;;;0.25;0.25;;;;;;;;;;4987930;28;20276;-86
2021/09/29 12:07:57;;;;;;;0.10;0.10;;;;;;;;;;4971254;28;20089;-85
2021/09/29 12:10:06;;;;;;;0.10;0.10;;;;;;;;;;4976695;28;20049;-84
2021/09/29 12:12:35;;;;;;;0.10;0.10;;;;;;;;;;4975559;28;20041;-83
2021/09/29 12:15:03;;;;;;;0.10;0.10;;;;;;;;;;4981152;28;20050;-83
2021/09/29 12:17:35;;;;;;;0.00;0.00;;;;;;;;;;4989350;28;20398;-83
2021/09/29 12:23:06;;;;;;;0.10;0.10;;;;;;;;;;4930600;29;20061;-83
2021/09/29 12:25:40;;;;;;;0.00;0.00;;;;;;;;;;4928802;29;20142;-83
2021/09/29 12:28:21;;;;;;;0.00;0.00;;;;;;;;;;4931324;29;20116;-84
2021/09/29 12:36:14;;;;;;;0.10;0.10;;;;;;;;;;4926766;29;20031;-84
2021/09/29 12:38:47;;;;;;;0.00;0.00;;;;;;;;;;4910802;29;20043;-84
2021/09/29 12:41:14;;;;;;;0.05;0.05;;;;;;;;;;4930765;29;20051;-83
2021/09/29 12:43:40;;;;;;;0.00;0.00;;;;;;;;;;4911099;29;20038;-83
2021/09/29 12:46:06;;;;;;;0.10;0.10;;;;;;;;;;4924850;29;20052;-83
2021/09/29 12:48:32;;;;;;;0.05;0.05;;;;;;;;;;4924959;29;20086;-83
2021/09/29 12:51:03;;;;;;;0.00;0.00;;;;;;;;;;4926686;29;20043;-83
2021/09/29 12:58:23;;;;;;;0.13;0.13;;;;;;;;;;4963582;28;20038;-82
2021/09/29 13:00:49;;;;;;;0.00;0.00;;;;;;;;;;5001997;28;20033;-82
2021/09/29 13:03:15;;;;;;;0.00;0.00;;;;;;;;;;5002433;28;20045;-83
2021/09/29 13:05:41;;;;;;;0.00;0.00;;;;;;;;;;5004487;28;20061;-83
2021/09/29 13:08:08;;;;;;;0.70;0.70;;;;;;;;;;4997484;28;20026;-82
2021/09/29 13:10:34;;;;;;;0.00;0.00;;;;;;;;;;5002149;28;20037;-82
2021/09/29 13:13:00;;;;;;;0.00;0.00;;;;;;;;;;5002668;28;20121;-84
2021/09/29 13:15:26;;;;;;;0.00;0.00;;;;;;;;;;5002436;28;20022;-82
2021/09/29 13:17:54;;;;;;;0.10;0.10;;;;;;;;;;5007893;28;20034;-82
2021/09/29 13:20:22;;;;;;;0.22;0.22;;;;;;;;;;5005967;28;20072;-82
2021/09/29 13:23:25;;;;;;;0.10;0.10;;;;;;;;;;5005101;28;20034;-83
2021/09/29 13:36:38;;;;;;;0.10;0.10;;;;;;;;;;4989300;28;20125;-83
2021/09/29 13:39:24;;;;;;;3.00;0.10;;;;;;;;;;4991876;28;20022;-83
2021/09/29 13:41:53;;;;;;;0.00;0.00;;;;;;;;;;4989603;28;20484;-83
2021/09/29 13:44:19;;;;;;;0.05;0.05;;;;;;;;;;4989615;28;20042;-83
2021/09/29 13:46:46;;;;;;;0.00;0.00;;;;;;;;;;5004732;28;20670;-82
2021/09/29 13:49:13;;;;;;;0.35;0.35;;;;;;;;;;4990580;28;20486;-82
2021/09/29 13:51:38;;;;;;;;;;;;;;;;;;4993019;28;20826;-83
2021/09/29 13:54:10;;;;;;;0.00;0.00;;;;;;;;;;4998983;28;19937;-82
2021/09/29 13:56:49;;;;;;;0.32;0.15;;;;;;;;;;4994499;28;20073;-83
2021/09/29 13:59:23;;;;;;;0.00;0.00;;;;;;;;;;4991227;28;20057;-82
2021/09/29 14:28:55;;;;;;;0.00;0.00;;;;;;;;;;5003792;28;20115;-83
2021/09/29 14:32:14;;;;;;;0.10;0.10;;;;;;;;;;5004608;28;20040;-83
2021/09/29 14:34:08;;;;;;;0.03;0.03;;;;;;;;;;4993606;28;20119;-83
2021/09/29 14:36:34;;;;;;;0.10;0.10;;;;;;;;;;5004318;28;20496;-83
2021/09/29 14:39:00;;;;;;;0.10;0.10;;;;;;;;;;5006313;28;20487;-83
2021/09/29 14:41:26;;;;;;;0.63;0.22;;;;;;;;;;5005264;28;20022;-83
2021/09/29 14:43:53;;;;;;;0.13;0.13;;;;;;;;;;5003019;28;20072;-83
2021/09/29 14:46:19;;;;;;;;;;;;;;;;;;5004365;28;20523;-83
2021/09/29 14:48:45;;;;;;;0.00;0.00;;;;;;;;;;5004223;28;19910;-83
2021/09/29 14:51:12;;;;;;;0.25;0.25;;;;;;;;;;5004605;28;20030;-83
2021/09/29 14:53:38;;;;;;;0.00;0.00;;;;;;;;;;5004561;28;20033;-82
2021/09/29 14:56:05;;;;;;;0.32;0.32;;;;;;;;;;5003747;28;20114;-82
2021/09/29 14:58:32;;;;;;;0.00;0.00;;;;;;;;;;5004068;28;20646;-83
2021/09/29 15:00:58;;;;;;;0.13;0.13;;;;;;;;;;5003811;28;20100;-82
2021/09/29 15:03:24;;;;;;;0.08;0.08;;;;;;;;;;5002153;28;20465;-83
2021/09/29 15:05:51;;;;;;;0.10;0.10;;;;;;;;;;4989128;28;20046;-82
2021/09/29 15:08:18;;;;;;;0.10;0.10;;;;;;;;;;4988702;28;20031;-82
2021/09/29 15:10:44;;;;;;;;;;;;;;;;;;4989504;28;20113;-82
2021/09/29 15:13:13;;;;;;;0.00;0.00;;;;;;;;;;4987200;28;20001;-82
2021/09/29 15:16:05;;;;;;;1.17;0.43;;;;;;;;;;4985869;28;20140;-82
2021/09/29 15:18:41;;;;;;;0.00;0.00;;;;;;;;;;4986777;28;20768;-82
2021/09/29 15:21:26;;;;;;;0.00;0.00;;;;;;;;;;4989530;28;20041;-81
2021/09/29 15:24:07;;;;;;;0.13;0.13;;;;;;;;;;4987357;28;20034;-82
2021/09/29 15:32:05;;;;;;;0.75;0.75;;;;;;;;;;4989101;28;20033;-82
2021/09/29 15:50:59;;;;;;;0.00;0.00;;;;;;;;;;5003333;28;20115;-87
2021/09/29 16:12:37;;;;;;;0.40;0.40;;;;;;;;;;4996982;28;20088;-87
2021/09/29 16:31:11;;;;;;;0.10;0.10;;;;;;;;;;4952193;28;19984;-87
2021/09/29 16:36:05;;;;;;;0.10;0.10;;;;;;;;;;4962150;28;20046;-89
2021/09/29 16:38:31;;;;;;;0.10;0.10;;;;;;;;;;4960703;28;20077;-88
2021/09/29 16:40:58;;;;;;;0.00;0.00;;;;;;;;;;4950232;28;20543;-89
2021/09/29 16:43:24;;;;;;;0.08;0.08;;;;;;;;;;4965662;28;20034;-89
2021/09/29 16:45:51;;;;;;;0.10;0.10;;;;;;;;;;4940543;28;20057;-88
2021/09/29 16:48:19;;;;;;;0.10;0.10;;;;;;;;;;4958867;28;20421;-90
2021/09/29 16:51:10;;;;;;;0.20;0.20;;;;;;;;;;4963016;28;20073;-88
2021/09/29 16:53:35;;;;;;;0.10;0.10;;;;;;;;;;4964259;28;20049;-88
2021/09/29 16:56:02;;;;;;;0.00;0.00;;;;;;;;;;4949044;28;20065;-88
2021/09/29 16:58:48;;;;;;;;;;;;;;;;;;4949544;28;20045;-89
2021/09/29 17:01:16;;;;;;;0.00;0.00;;;;;;;;;;4966122;28;19921;-87
2021/09/29 17:03:42;;;;;;;0.20;0.20;;;;;;;;;;4965250;28;20169;-88
2021/09/29 17:06:10;;;;;;;3.90;1.65;;;;;;;;;;4999513;28;20145;-87
2021/09/29 17:08:37;;;;;;;0.10;0.10;;;;;;;;;;4991710;28;20218;-87
2021/09/29 17:11:04;;;;;;;0.22;0.22;;;;;;;;;;4995809;28;20095;-88
2021/09/29 17:13:37;;;;;;;1.98;0.75;;;;;;;;;;4992083;28;20038;-88
2021/09/29 17:16:04;;;;;;;0.45;0.40;;;;;;;;;;5003453;28;20038;-88
2021/09/29 17:18:30;;;;;;;1.85;0.73;;;;;;;;;;5002666;28;20053;-88
2021/09/29 17:20:56;;;;;;;0.00;0.00;;;;;;;;;;5002298;28;20034;-87
2021/09/29 17:23:23;;;;;;;0.08;0.08;;;;;;;;;;4991874;28;20118;-87
2021/09/29 17:25:49;;;;;;;0.20;0.20;;;;;;;;;;5018669;28;20570;-87
2021/09/29 17:28:18;;;;;;;0.00;0.00;;;;;;;;;;4992166;28;20417;-88
2021/09/29 17:30:48;;;;;;;0.15;0.15;;;;;;;;;;4989748;28;20045;-88
2021/09/29 17:54:34;;;;;;;0.63;0.63;;;;;;;;;;5000781;28;20080;-87
2021/09/29 17:57:00;;;;;;;0.00;0.00;;;;;;;;;;5004803;28;20080;-87
2021/09/29 17:59:26;;;;;;;0.20;0.20;;;;;;;;;;5002230;28;20268;-87
2021/09/29 18:01:56;;;;;;;0.55;0.55;;;;;;;;;;4994955;28;20474;-86
2021/09/29 18:04:24;;;;;;;0.10;0.10;;;;;;;;;;5003175;28;20034;-87
2021/09/29 18:07:12;;;;;;;0.30;0.30;;;;;;;;;;5006792;28;20084;-87
2021/09/29 18:09:38;;;;;;;0.00;0.00;;;;;;;;;;4990535;28;20023;-84
2021/09/29 18:12:05;;;;;;;0.10;0.10;;;;;;;;;;4997590;28;20057;-84
2021/09/29 18:14:32;;;;;;;0.30;0.30;;;;;;;;;;4997360;28;20022;-84
2021/09/29 18:16:59;;;;;;;0.10;0.10;;;;;;;;;;4999388;28;20030;-85
2021/09/29 18:19:26;;;;;;;0.20;0.20;;;;;;;;;;4994708;28;20091;-85
2021/09/29 18:21:52;;;;;;;0.00;0.00;;;;;;;;;;4990461;28;20080;-85
2021/09/29 18:24:19;;;;;;;0.32;0.32;;;;;;;;;;4993009;28;20038;-85
2021/09/29 18:26:51;;;;;;;1.75;1.65;;;;;;;;;;5001425;28;20129;-85
2021/09/29 18:29:18;;;;;;;0.32;0.32;;;;;;;;;;4998580;28;20029;-85
2021/09/29 18:31:45;;;;;;;0.25;0.25;;;;;;;;;;4998862;28;20427;-85
2021/09/29 18:34:12;;;;;;;0.20;0.20;;;;;;;;;;4999032;28;20551;-85
2021/09/29 18:36:41;;;;;;;0.13;0.13;;;;;;;;;;4993546;28;20173;-85
2021/09/29 18:39:07;;;;;;;0.10;0.10;;;;;;;;;;5003065;28;20730;-85
2021/09/29 18:41:34;;;;;;;14.33;0.40;;;;;;;;;;4993575;28;20033;-84
2021/09/29 18:44:04;;;;;;;0.10;0.10;;;;;;;;;;4997006;28;20292;-83
2021/09/29 18:46:32;;;;;;;0.10;0.10;;;;;;;;;;5000924;28;20044;-85
2021/09/29 18:48:59;;;;;;;0.10;0.10;;;;;;;;;;4998990;28;20526;-84
2021/09/29 18:51:25;;;;;;;0.88;0.70;;;;;;;;;;4996560;28;20686;-84
2021/09/29 18:53:59;;;;;;;0.77;0.75;;;;;;;;;;4991631;28;20034;-84
2021/09/29 19:07:11;;;;;;;0.10;0.10;;;;;;;;;;4994304;28;20053;-83
2021/09/29 19:07:28;;;;;;;0.08;0.08;;;;;;;;;;5001768;28;20096;-83
2021/09/29 19:09:54;;;;;;;0.10;0.10;;;;;;;;;;4989994;28;20030;-84
2021/09/29 19:12:20;;;;;;;0.30;0.30;;;;;;;;;;4993468;28;20041;-84
2021/09/29 19:14:46;;;;;;;0.40;0.40;;;;;;;;;;4995020;28;20652;-84
2021/09/29 19:17:14;;;;;;;0.10;0.10;;;;;;;;;;4997165;28;20036;-85
2021/09/29 19:19:40;;;;;;;0.00;0.00;;;;;;;;;;4995282;28;20030;-85
2021/09/29 19:22:06;;;;;;;0.00;0.00;;;;;;;;;;4993940;28;20049;-85
2021/09/29 19:24:32;;;;;;;0.10;0.10;;;;;;;;;;4993098;28;20300;-86
2021/09/29 19:26:58;;;;;;;0.10;0.10;;;;;;;;;;4993441;28;20096;-85
2021/09/29 19:29:24;;;;;;;0.10;0.10;;;;;;;;;;4994707;28;20288;-85
2021/09/29 19:31:50;;;;;;;0.10;0.10;;;;;;;;;;4993165;28;20294;-85